Sacramento, California
Traffic Map
Current Weather Conditions
Sacramento, California
Clear
Clear
58°
Feels Like: 58°
Wind Chill: 58° Ceiling: Unl
Heat Index: 58° Visibility: 10mi
Dew Point: 54° Wind: 6mph
Humidity: 87% Direction: 230° (SW)
Pressure: 29.88in Gusts: 0mph
Raw Report DataKSAC 231253Z AUTO 23005KT 10SM CLR 14/12 A2988 RMK AO2 SLP117 T01440122
Traffic Incident Summary
Active as of:
Severity:
Category:
InformationThere was an issue retrieving the traffic information for this location. Please try a different location or try again shortly.
Advertisements
Track Severe Weather on mobile